Meishomaru — JD3044 — position and weather

sailwx.info

Track history (hours):
 
Tides and Currents Weather Stations Pressure Air Temp Water Temp Dewpoint Dewpoint Depression Visibility Wind Speed Wind Dir Waves Ship Positions

Meishomaru

Last reported at 2017-May-21 04:52 UTC. Time now 2017-May-23 03:11 UTC.
Position N 35°11' E 139°46'.

Length 68 m; draft 3.8 m.

Type: Tanker. MMSI: 431001216.

Date/timePositionNaut miles runAvg speedWind from/ knotsBaromVisibWave heightAir tempDewpointWater temp
2017-May-21 04:52N 35°11' E 139°46'411.6
2017-May-21 04:30N 35°15' E 139°46'611.3
2017-May-21 04:00N 35°20' E 139°43'510.8
2017-May-21 03:31N 35°25' E 139°39'0 0.3
2017-May-21 02:59N 35°25' E 139°39'0 0.0
2017-May-21 02:29N 35°25' E 139°39'0 0.0
2017-May-21 01:59N 35°25' E 139°39'0 0.0
2017-May-21 01:29N 35°25' E 139°39'0 0.0
2017-May-21 00:59N 35°25' E 139°39'0 0.0
2017-May-21 00:29N 35°25' E 139°39'0 0.0
2017-May-20 23:59N 35°25' E 139°39'0 0.0
2017-May-20 23:29N 35°25' E 139°39'1 1.4
2017-May-20 23:00N 35°24' E 139°39'2 3.0
2017-May-20 22:28N 35°23' E 139°40'0 0.0
2017-May-20 21:58N 35°23' E 139°40'0 0.0
2017-May-20 21:28N 35°23' E 139°40'0 0.0
2017-May-20 20:58N 35°23' E 139°40'0 0.0
2017-May-20 20:28N 35°23' E 139°40'0 0.0
2017-May-20 19:55N 35°23' E 139°40'0 0.0
2017-May-20 19:28N 35°23' E 139°40'0 0.0
2017-May-20 18:58N 35°23' E 139°40'0 0.0
2017-May-20 18:28N 35°23' E 139°40'0 0.0
2017-May-20 17:58N 35°23' E 139°40'0 0.0
2017-May-20 17:28N 35°23' E 139°40'0 0.0
2017-May-20 16:58N 35°23' E 139°40'0 0.1
2017-May-20 16:28N 35°23' E 139°40'0 0.1
2017-May-20 15:58N 35°23' E 139°40'0 0.1
2017-May-20 15:28N 35°23' E 139°40'0 0.0
2017-May-20 14:55N 35°23' E 139°40'0 0.0
2017-May-20 13:58N 35°23' E 139°40'0 0.0
2017-May-20 13:28N 35°23' E 139°40'0 0.0
2017-May-20 12:58N 35°23' E 139°40'0 0.0
2017-May-20 12:28N 35°23' E 139°40'0 0.0
2017-May-20 11:58N 35°23' E 139°40'0 0.0
2017-May-20 11:28N 35°23' E 139°40'0 0.0
2017-May-20 10:55N 35°23' E 139°40'0 0.0
2017-May-20 10:28N 35°23' E 139°40'0 0.1
2017-May-20 09:55N 35°23' E 139°40'0 0.1
2017-May-20 09:29N 35°23' E 139°40'4 9.1
2017-May-20 09:01N 35°26' E 139°45'611.3
2017-May-20 08:30N 35°29' E 139°50'510.5
2017-May-20 08:01N 35°29' E 139°57'3 6.0
2017-May-20 07:30N 35°28' E 140°00'2 0.6
2017-May-20 04:21N 35°30' E 139°59'3 0.6
2017-May-19 23:24N 35°32' E 140°01'710.6
2017-May-19 22:46N 35°28' E 139°55'0 0.1
2017-May-19 22:21N 35°28' E 139°55'0 0.0
2017-May-19 21:54N 35°28' E 139°55'0 0.0
2017-May-19 21:24N 35°28' E 139°55'0 0.0
2017-May-19 21:00N 35°28' E 139°55'0 0.1
2017-May-19 20:24N 35°28' E 139°55'0 0.0
2017-May-19 19:18N 35°28' E 139°55'0 0.2
2017-May-19 19:00N 35°28' E 139°55'0 0.0
2017-May-19 18:27N 35°28' E 139°55'0 0.0
2017-May-19 17:45N 35°28' E 139°55'0 0.0
2017-May-19 17:27N 35°28' E 139°55'0 0.0
2017-May-19 16:57N 35°28' E 139°55'0 0.0
2017-May-19 16:30N 35°28' E 139°55'0 0.0
2017-May-19 16:00N 35°28' E 139°55'0 0.0
2017-May-19 15:30N 35°28' E 139°55'0 0.0
2017-May-19 15:00N 35°28' E 139°55'0 0.0
2017-May-19 14:00N 35°28' E 139°55'0 0.0
2017-May-19 13:30N 35°28' E 139°55'0 0.0
2017-May-19 12:36N 35°28' E 139°55'0 0.0
2017-May-19 12:24N 35°28' E 139°55'0 0.0
2017-May-19 12:00N 35°28' E 139°55'0 0.0
2017-May-19 11:27N 35°28' E 139°55'0 0.0
2017-May-19 10:57N 35°28' E 139°55'3 6.4
2017-May-19 10:30N 35°28' E 139°51'612.2
2017-May-19 10:00N 35°23' E 139°46'611.6
2017-May-19 09:30N 35°18' E 139°45'611.5
2017-May-19 09:00N 35°12' E 139°47'245 9.9
2017-May-18 08:16N 34°07' E 134°59'312.4
2017-May-18 08:00N 34°11' E 134°59'2011.0
2017-May-18 06:14N 34°28' E 135°11'312.1
2017-May-18 06:00N 34°29' E 135°14'611.9
2017-May-18 05:30N 34°32' E 135°20'4 8.6
2017-May-18 05:01N 34°32' E 135°25'0 0.1
2017-May-18 04:30N 34°32' E 135°25'0 0.0
2017-May-18 00:00N 34°32' E 135°25'1 2.1
2017-May-17 23:30N 34°33' E 135°25'3 1.3
2017-May-17 21:28N 34°32' E 135°22'0 0.0
2017-May-17 20:40N 34°32' E 135°22'0 0.0
2017-May-17 18:22N 34°32' E 135°22'0 0.0
2017-May-17 16:10N 34°32' E 135°22'0 0.0
2017-May-17 15:58N 34°32' E 135°22'0 0.0
2017-May-17 15:28N 34°32' E 135°22'0 0.0
2017-May-17 14:58N 34°32' E 135°22'0 0.0
2017-May-17 14:28N 34°32' E 135°22'0 0.0
2017-May-17 12:40N 34°32' E 135°22'0 0.0
2017-May-17 12:30N 34°32' E 135°22'3 6.7
2017-May-17 12:00N 34°31' E 135°18'511.0
2017-May-17 11:30N 34°28' E 135°13'611.2
2017-May-17 10:58N 34°23' E 135°07'911.5
2017-May-17 10:12N 34°17' E 134°59'210.0
2017-May-17 09:57N 34°15' E 134°60'4 9.7
2017-May-17 09:30N 34°11' E 135°00'243 9.5
2017-May-16 07:58N 35°12' E 139°45'510.6
2017-May-16 07:30N 35°17' E 139°45'611.3
2017-May-16 07:00N 35°22' E 139°42'510.8
2017-May-16 06:30N 35°26' E 139°46'611.9
2017-May-16 06:00N 35°30' E 139°52'611.8
2017-May-16 05:30N 35°31' E 139°59'3 0.5
2017-May-16 00:31N 35°31' E 140°02'2 5.6
2017-May-16 00:09N 35°31' E 139°60'210.2
2017-May-15 23:55N 35°30' E 139°57'2 2.8
2017-May-15 23:03N 35°29' E 139°55'0 0.0
2017-May-15 22:57N 35°29' E 139°55'0 0.0
2017-May-15 21:21N 35°29' E 139°55'0 0.0
2017-May-15 21:00N 35°29' E 139°55'0 0.0
2017-May-15 20:30N 35°29' E 139°55'0 0.0
2017-May-15 19:45N 35°28' E 139°55'0 0.0
2017-May-15 19:30N 35°28' E 139°55'0 0.0
2017-May-15 18:57N 35°29' E 139°55'0 0.0
2017-May-15 18:30N 35°28' E 139°55'0 0.0
2017-May-15 18:00N 35°28' E 139°55'0 0.0
2017-May-15 17:30N 35°28' E 139°55'0 0.0
2017-May-15 16:57N 35°28' E 139°55'0 0.0
2017-May-15 16:30N 35°28' E 139°55'0 0.0
2017-May-15 16:00N 35°28' E 139°55'0 0.0
2017-May-15 15:30N 35°28' E 139°55'0 0.1
2017-May-15 15:00N 35°29' E 139°55'0 0.0
2017-May-15 14:00N 35°29' E 139°55'0 0.0
2017-May-15 13:30N 35°29' E 139°55'0 0.0
2017-May-15 12:51N 35°29' E 139°55'0 0.0
2017-May-15 12:24N 35°29' E 139°55'0 0.0
2017-May-15 10:51N 35°29' E 139°55'0 0.1
2017-May-15 10:30N 35°29' E 139°55'0 0.0
2017-May-15 10:00N 35°29' E 139°55'0 0.0
2017-May-15 09:27N 35°29' E 139°55'0 0.0
2017-May-15 09:00N 35°29' E 139°55'0 0.0
2017-May-15 08:27N 35°29' E 139°55'0 0.0
2017-May-15 08:00N 35°29' E 139°55'0 0.0
2017-May-15 07:30N 35°29' E 139°55'0 0.0
2017-May-15 06:54N 35°29' E 139°55'0 0.0
2017-May-15 06:30N 35°29' E 139°55'0 0.0
2017-May-15 05:51N 35°29' E 139°55'0 0.0
2017-May-15 05:30N 35°29' E 139°55'0 0.0
2017-May-15 04:57N 35°29' E 139°55'0 0.1
2017-May-15 04:30N 35°29' E 139°55'0 0.1
2017-May-15 04:00N 35°29' E 139°55'0 0.0
2017-May-15 03:30N 35°29' E 139°55'0 0.0
2017-May-15 02:57N 35°29' E 139°55'0 0.0
2017-May-15 02:30N 35°29' E 139°55'0 0.0
2017-May-15 01:54N 35°29' E 139°55'0 0.0
2017-May-15 01:30N 35°29' E 139°55'0 0.0
2017-May-15 01:00N 35°29' E 139°55'0 0.0
2017-May-14 23:03N 35°29' E 139°55'0 0.0
2017-May-14 21:39N 35°29' E 139°55'0 0.0
2017-May-14 21:27N 35°29' E 139°55'0 0.0
2017-May-14 20:21N 35°29' E 139°55'0 0.0
2017-May-14 19:51N 35°29' E 139°55'0 0.0
2017-May-14 17:45N 35°29' E 139°55'0 0.0
2017-May-14 17:27N 35°29' E 139°55'0 0.0
2017-May-14 17:00N 35°29' E 139°55'0 0.0
2017-May-14 16:18N 35°29' E 139°55'0 0.0
2017-May-14 15:57N 35°29' E 139°55'0 0.0
2017-May-14 15:30N 35°29' E 139°55'0 0.0
2017-May-14 14:39N 35°29' E 139°55'0 0.0
2017-May-14 14:30N 35°29' E 139°55'0 0.0
2017-May-14 13:24N 35°29' E 139°55'0 0.0
2017-May-14 13:00N 35°29' E 139°55'0 0.0
2017-May-14 12:30N 35°29' E 139°55'0 0.0
2017-May-14 11:51N 35°29' E 139°55'0 0.0
2017-May-14 07:42N 35°29' E 139°55'1 5.0
2017-May-14 07:29N 35°29' E 139°53'511.0
2017-May-14 07:00N 35°25' E 139°48'611.3
2017-May-14 06:30N 35°20' E 139°45'510.8
2017-May-14 06:00N 35°15' E 139°47'510.8
2017-May-14 05:30N 35°10' E 139°46'510.8
2017-May-14 05:00N 35°05' E 139°45'3 6.0
2017-May-14 04:30N 35°02' E 139°43'4 7.5
2017-May-14 04:00N 35°06' E 139°44'4 8.6
2017-May-14 03:30N 35°10' E 139°44'612.4
2017-May-14 03:00N 35°16' E 139°46'612.3
2017-May-14 02:30N 35°22' E 139°42'612.2
2017-May-14 02:00N 35°28' E 139°42'4 8.1
2017-May-14 01:30N 35°31' E 139°45'0 0.0
2017-May-13 22:41N 35°31' E 139°45'0 0.2
2017-May-13 22:30N 35°31' E 139°45'3 5.7
2017-May-13 22:00N 35°30' E 139°48'1 1.9
2017-May-13 21:30N 35°29' E 139°49'0 0.0
2017-May-13 21:00N 35°29' E 139°49'0 0.0
2017-May-13 20:30N 35°29' E 139°49'0 0.0
2017-May-13 20:00N 35°29' E 139°49'0 0.0
2017-May-13 19:30N 35°29' E 139°49'0 0.0
2017-May-13 19:00N 35°29' E 139°49'0 0.0
2017-May-13 18:30N 35°29' E 139°49'0 0.0
2017-May-13 18:00N 35°29' E 139°49'0 0.0
2017-May-13 17:30N 35°29' E 139°49'0 0.0
2017-May-13 17:00N 35°29' E 139°49'0 0.0
2017-May-13 16:30N 35°29' E 139°49'0 0.0
2017-May-13 16:00N 35°29' E 139°49'0 0.0
2017-May-13 15:30N 35°29' E 139°49'0 0.0
2017-May-13 15:00N 35°29' E 139°49'0 0.0
2017-May-13 14:30N 35°29' E 139°49'0 0.0
2017-May-13 13:30N 35°29' E 139°49'0 0.0
2017-May-13 13:00N 35°29' E 139°49'0 0.0
2017-May-13 12:30N 35°29' E 139°49'0 0.0
2017-May-13 12:00N 35°29' E 139°49'0 0.1
2017-May-13 11:30N 35°29' E 139°49'0 0.0
2017-May-13 11:00N 35°29' E 139°49'0 0.0
2017-May-13 10:30N 35°29' E 139°49'0 0.0
2017-May-13 10:00N 35°29' E 139°49'0 0.0
2017-May-13 09:30N 35°29' E 139°49'0 0.1
2017-May-13 09:00N 35°29' E 139°49'0 0.0
2017-May-13 08:30N 35°29' E 139°49'3 6.5
2017-May-13 08:00N 35°27' E 139°46'611.1
2017-May-13 07:30N 35°24' E 139°40'2 3.1
2017-May-13 06:58N 35°25' E 139°39'0 0.0
2017-May-13 06:28N 35°25' E 139°39'0 0.0
2017-May-13 05:58N 35°25' E 139°39'0 0.0
2017-May-13 05:28N 35°25' E 139°39'0 0.0
2017-May-13 04:58N 35°25' E 139°39'0 0.0
2017-May-13 04:28N 35°25' E 139°39'0 0.0
2017-May-13 03:58N 35°25' E 139°39'0 0.0
2017-May-13 03:28N 35°25' E 139°39'0 0.0
2017-May-13 02:58N 35°25' E 139°39'2 5.2
2017-May-13 02:30N 35°24' E 139°42'510.8
2017-May-13 02:00N 35°29' E 139°42'3 2.0
2017-May-13 00:35N 35°31' E 139°45'0 0.0
2017-May-12 23:29N 35°31' E 139°45'0 0.0
2017-May-12 22:53N 35°31' E 139°45'0 0.6
2017-May-12 22:30N 35°31' E 139°45'4 7.4
2017-May-12 22:00N 35°29' E 139°49'0 0.1
2017-May-12 21:29N 35°29' E 139°49'0 0.0
2017-May-12 20:59N 35°29' E 139°49'0 0.0
2017-May-12 20:29N 35°29' E 139°49'0 0.0
2017-May-12 19:56N 35°29' E 139°49'0 0.0
2017-May-12 19:29N 35°29' E 139°49'0 0.0
2017-May-12 18:59N 35°29' E 139°49'0 0.0
2017-May-12 18:29N 35°29' E 139°49'0 0.0
2017-May-12 17:59N 35°29' E 139°49'0 0.0
2017-May-12 17:29N 35°29' E 139°49'0 0.0
2017-May-12 16:59N 35°29' E 139°49'0 0.0
2017-May-12 16:29N 35°29' E 139°49'0 0.0
2017-May-12 15:59N 35°29' E 139°49'0 0.0
2017-May-12 15:29N 35°29' E 139°49'0 0.0
2017-May-12 14:59N 35°29' E 139°49'0 0.0
2017-May-12 14:29N 35°29' E 139°49'0 0.0
2017-May-12 13:29N 35°29' E 139°49'0 0.0
2017-May-12 12:59N 35°29' E 139°49'0 0.0
2017-May-12 12:29N 35°29' E 139°49'0 0.0
2017-May-12 11:56N 35°29' E 139°49'0 0.0
2017-May-12 11:29N 35°29' E 139°49'0 0.0
2017-May-12 10:59N 35°29' E 139°49'0 0.0
2017-May-12 10:29N 35°29' E 139°49'0 0.0
2017-May-12 09:59N 35°29' E 139°49'0 0.0
2017-May-12 09:29N 35°29' E 139°49'0 0.3
2017-May-12 09:00N 35°29' E 139°49'611.8
2017-May-12 08:30N 35°25' E 139°44'4 7.9
2017-May-12 08:00N 35°25' E 139°39'0 0.1
2017-May-12 07:29N 35°25' E 139°39'0 0.0
2017-May-12 06:59N 35°25' E 139°39'0 0.0
2017-May-12 06:29N 35°25' E 139°39'0 0.0
2017-May-12 05:59N 35°25' E 139°39'0 0.0
2017-May-12 05:23N 35°25' E 139°39'0 0.0
2017-May-12 04:59N 35°25' E 139°39'0 0.0
2017-May-12 04:29N 35°25' E 139°39'0 0.0
2017-May-12 03:59N 35°25' E 139°39'0 0.0
2017-May-12 03:30N 35°25' E 139°39'3 5.3
2017-May-12 03:00N 35°25' E 139°42'510.1
2017-May-12 02:30N 35°30' E 139°43'2 3.7
2017-May-12 01:58N 35°31' E 139°45'0 0.0
2017-May-12 01:19N 35°31' E 139°45'0 0.0
2017-May-12 00:58N 35°31' E 139°45'0 0.0
2017-May-12 00:28N 35°31' E 139°45'0 0.0
2017-May-11 23:58N 35°31' E 139°45'0 0.0
2017-May-11 23:25N 35°31' E 139°45'0 0.1
2017-May-11 23:01N 35°31' E 139°45'2 4.6
2017-May-11 22:31N 35°30' E 139°47'1 2.8
2017-May-11 21:59N 35°29' E 139°49'0 0.0
2017-May-11 21:29N 35°29' E 139°49'0 0.0
2017-May-11 20:59N 35°29' E 139°49'0 0.0
2017-May-11 20:29N 35°29' E 139°49'0 0.0
2017-May-11 19:59N 35°29' E 139°49'0 0.0
2017-May-11 19:29N 35°29' E 139°49'0 0.0
2017-May-11 18:59N 35°29' E 139°49'0 0.0
2017-May-11 18:29N 35°29' E 139°49'0 0.0
2017-May-11 17:59N 35°29' E 139°49'0 0.0
2017-May-11 17:29N 35°29' E 139°49'0 0.1
2017-May-11 17:00N 35°29' E 139°49'5 9.7
2017-May-11 16:30N 35°25' E 139°47'612.2
2017-May-11 16:00N 35°19' E 139°44'611.4
2017-May-11 15:30N 35°14' E 139°47'611.5
2017-May-11 15:00N 35°08' E 139°46'611.4
2017-May-11 14:30N 35°03' E 139°43'  
Track history (hours):
 
Tides and Currents Weather Stations Pressure Air Temp Water Temp Dewpoint Dewpoint Depression Visibility Wind Speed Wind Dir Waves Ship Positions

Meishomaru

Last reported at 2017-May-21 04:52 UTC. Time now 2017-May-23 03:11 UTC.
Position N 35°11' E 139°46'.

Length 68 m; draft 3.8 m.

Type: Tanker. MMSI: 431001216.

Date/timePositionNaut miles runAvg speedWind from/ knotsBaromVisibWave heightAir tempDewpointWater temp
2017-May-21 04:52N 35°11' E 139°46'411.6
2017-May-21 04:30N 35°15' E 139°46'611.3
2017-May-21 04:00N 35°20' E 139°43'510.8
2017-May-21 03:31N 35°25' E 139°39'0 0.3
2017-May-21 02:59N 35°25' E 139°39'0 0.0
2017-May-21 02:29N 35°25' E 139°39'0 0.0
2017-May-21 01:59N 35°25' E 139°39'0 0.0
2017-May-21 01:29N 35°25' E 139°39'0 0.0
2017-May-21 00:59N 35°25' E 139°39'0 0.0
2017-May-21 00:29N 35°25' E 139°39'0 0.0
2017-May-20 23:59N 35°25' E 139°39'0 0.0
2017-May-20 23:29N 35°25' E 139°39'1 1.4
2017-May-20 23:00N 35°24' E 139°39'2 3.0
2017-May-20 22:28N 35°23' E 139°40'0 0.0
2017-May-20 21:58N 35°23' E 139°40'0 0.0
2017-May-20 21:28N 35°23' E 139°40'0 0.0
2017-May-20 20:58N 35°23' E 139°40'0 0.0
2017-May-20 20:28N 35°23' E 139°40'0 0.0
2017-May-20 19:55N 35°23' E 139°40'0 0.0
2017-May-20 19:28N 35°23' E 139°40'0 0.0
2017-May-20 18:58N 35°23' E 139°40'0 0.0
2017-May-20 18:28N 35°23' E 139°40'0 0.0
2017-May-20 17:58N 35°23' E 139°40'0 0.0
2017-May-20 17:28N 35°23' E 139°40'0 0.0
2017-May-20 16:58N 35°23' E 139°40'0 0.1
2017-May-20 16:28N 35°23' E 139°40'0 0.1
2017-May-20 15:58N 35°23' E 139°40'0 0.1
2017-May-20 15:28N 35°23' E 139°40'0 0.0
2017-May-20 14:55N 35°23' E 139°40'0 0.0
2017-May-20 13:58N 35°23' E 139°40'0 0.0
2017-May-20 13:28N 35°23' E 139°40'0 0.0
2017-May-20 12:58N 35°23' E 139°40'0 0.0
2017-May-20 12:28N 35°23' E 139°40'0 0.0
2017-May-20 11:58N 35°23' E 139°40'0 0.0
2017-May-20 11:28N 35°23' E 139°40'0 0.0
2017-May-20 10:55N 35°23' E 139°40'0 0.0
2017-May-20 10:28N 35°23' E 139°40'0 0.1
2017-May-20 09:55N 35°23' E 139°40'0 0.1
2017-May-20 09:29N 35°23' E 139°40'4 9.1
2017-May-20 09:01N 35°26' E 139°45'611.3
2017-May-20 08:30N 35°29' E 139°50'510.5
2017-May-20 08:01N 35°29' E 139°57'3 6.0
2017-May-20 07:30N 35°28' E 140°00'2 0.6
2017-May-20 04:21N 35°30' E 139°59'3 0.6
2017-May-19 23:24N 35°32' E 140°01'710.6
2017-May-19 22:46N 35°28' E 139°55'0 0.1
2017-May-19 22:21N 35°28' E 139°55'0 0.0
2017-May-19 21:54N 35°28' E 139°55'0 0.0
2017-May-19 21:24N 35°28' E 139°55'0 0.0
2017-May-19 21:00N 35°28' E 139°55'0 0.1
2017-May-19 20:24N 35°28' E 139°55'0 0.0
2017-May-19 19:18N 35°28' E 139°55'0 0.2
2017-May-19 19:00N 35°28' E 139°55'0 0.0
2017-May-19 18:27N 35°28' E 139°55'0 0.0
2017-May-19 17:45N 35°28' E 139°55'0 0.0
2017-May-19 17:27N 35°28' E 139°55'0 0.0
2017-May-19 16:57N 35°28' E 139°55'0 0.0
2017-May-19 16:30N 35°28' E 139°55'0 0.0
2017-May-19 16:00N 35°28' E 139°55'0 0.0
2017-May-19 15:30N 35°28' E 139°55'0 0.0
2017-May-19 15:00N 35°28' E 139°55'0 0.0
2017-May-19 14:00N 35°28' E 139°55'0 0.0
2017-May-19 13:30N 35°28' E 139°55'0 0.0
2017-May-19 12:36N 35°28' E 139°55'0 0.0
2017-May-19 12:24N 35°28' E 139°55'0 0.0
2017-May-19 12:00N 35°28' E 139°55'0 0.0
2017-May-19 11:27N 35°28' E 139°55'0 0.0
2017-May-19 10:57N 35°28' E 139°55'3 6.4
2017-May-19 10:30N 35°28' E 139°51'612.2
2017-May-19 10:00N 35°23' E 139°46'611.6
2017-May-19 09:30N 35°18' E 139°45'611.5
2017-May-19 09:00N 35°12' E 139°47'245 9.9
2017-May-18 08:16N 34°07' E 134°59'312.4
2017-May-18 08:00N 34°11' E 134°59'2011.0
2017-May-18 06:14N 34°28' E 135°11'312.1
2017-May-18 06:00N 34°29' E 135°14'611.9
2017-May-18 05:30N 34°32' E 135°20'4 8.6
2017-May-18 05:01N 34°32' E 135°25'0 0.1
2017-May-18 04:30N 34°32' E 135°25'0 0.0
2017-May-18 00:00N 34°32' E 135°25'1 2.1
2017-May-17 23:30N 34°33' E 135°25'3 1.3
2017-May-17 21:28N 34°32' E 135°22'0 0.0
2017-May-17 20:40N 34°32' E 135°22'0 0.0
2017-May-17 18:22N 34°32' E 135°22'0 0.0
2017-May-17 16:10N 34°32' E 135°22'0 0.0
2017-May-17 15:58N 34°32' E 135°22'0 0.0
2017-May-17 15:28N 34°32' E 135°22'0 0.0
2017-May-17 14:58N 34°32' E 135°22'0 0.0
2017-May-17 14:28N 34°32' E 135°22'0 0.0
2017-May-17 12:40N 34°32' E 135°22'0 0.0
2017-May-17 12:30N 34°32' E 135°22'3 6.7
2017-May-17 12:00N 34°31' E 135°18'511.0
2017-May-17 11:30N 34°28' E 135°13'611.2
2017-May-17 10:58N 34°23' E 135°07'911.5
2017-May-17 10:12N 34°17' E 134°59'210.0
2017-May-17 09:57N 34°15' E 134°60'4 9.7
2017-May-17 09:30N 34°11' E 135°00'243 9.5
2017-May-16 07:58N 35°12' E 139°45'510.6
2017-May-16 07:30N 35°17' E 139°45'611.3
2017-May-16 07:00N 35°22' E 139°42'510.8
2017-May-16 06:30N 35°26' E 139°46'611.9
2017-May-16 06:00N 35°30' E 139°52'611.8
2017-May-16 05:30N 35°31' E 139°59'3 0.5
2017-May-16 00:31N 35°31' E 140°02'2 5.6
2017-May-16 00:09N 35°31' E 139°60'210.2
2017-May-15 23:55N 35°30' E 139°57'2 2.8
2017-May-15 23:03N 35°29' E 139°55'0 0.0
2017-May-15 22:57N 35°29' E 139°55'0 0.0
2017-May-15 21:21N 35°29' E 139°55'0 0.0
2017-May-15 21:00N 35°29' E 139°55'0 0.0
2017-May-15 20:30N 35°29' E 139°55'0 0.0
2017-May-15 19:45N 35°28' E 139°55'0 0.0
2017-May-15 19:30N 35°28' E 139°55'0 0.0
2017-May-15 18:57N 35°29' E 139°55'0 0.0
2017-May-15 18:30N 35°28' E 139°55'0 0.0
2017-May-15 18:00N 35°28' E 139°55'0 0.0
2017-May-15 17:30N 35°28' E 139°55'0 0.0
2017-May-15 16:57N 35°28' E 139°55'0 0.0
2017-May-15 16:30N 35°28' E 139°55'0 0.0
2017-May-15 16:00N 35°28' E 139°55'0 0.0
2017-May-15 15:30N 35°28' E 139°55'0 0.1
2017-May-15 15:00N 35°29' E 139°55'0 0.0
2017-May-15 14:00N 35°29' E 139°55'0 0.0
2017-May-15 13:30N 35°29' E 139°55'0 0.0
2017-May-15 12:51N 35°29' E 139°55'0 0.0
2017-May-15 12:24N 35°29' E 139°55'0 0.0
2017-May-15 10:51N 35°29' E 139°55'0 0.1
2017-May-15 10:30N 35°29' E 139°55'0 0.0
2017-May-15 10:00N 35°29' E 139°55'0 0.0
2017-May-15 09:27N 35°29' E 139°55'0 0.0
2017-May-15 09:00N 35°29' E 139°55'0 0.0
2017-May-15 08:27N 35°29' E 139°55'0 0.0
2017-May-15 08:00N 35°29' E 139°55'0 0.0
2017-May-15 07:30N 35°29' E 139°55'0 0.0
2017-May-15 06:54N 35°29' E 139°55'0 0.0
2017-May-15 06:30N 35°29' E 139°55'0 0.0
2017-May-15 05:51N 35°29' E 139°55'0 0.0
2017-May-15 05:30N 35°29' E 139°55'0 0.0
2017-May-15 04:57N 35°29' E 139°55'0 0.1
2017-May-15 04:30N 35°29' E 139°55'0 0.1
2017-May-15 04:00N 35°29' E 139°55'0 0.0
2017-May-15 03:30N 35°29' E 139°55'0 0.0
2017-May-15 02:57N 35°29' E 139°55'0 0.0
2017-May-15 02:30N 35°29' E 139°55'0 0.0
2017-May-15 01:54N 35°29' E 139°55'0 0.0
2017-May-15 01:30N 35°29' E 139°55'0 0.0
2017-May-15 01:00N 35°29' E 139°55'0 0.0
2017-May-14 23:03N 35°29' E 139°55'0 0.0
2017-May-14 21:39N 35°29' E 139°55'0 0.0
2017-May-14 21:27N 35°29' E 139°55'0 0.0
2017-May-14 20:21N 35°29' E 139°55'0 0.0
2017-May-14 19:51N 35°29' E 139°55'0 0.0
2017-May-14 17:45N 35°29' E 139°55'0 0.0
2017-May-14 17:27N 35°29' E 139°55'0 0.0
2017-May-14 17:00N 35°29' E 139°55'0 0.0
2017-May-14 16:18N 35°29' E 139°55'0 0.0
2017-May-14 15:57N 35°29' E 139°55'0 0.0
2017-May-14 15:30N 35°29' E 139°55'0 0.0
2017-May-14 14:39N 35°29' E 139°55'0 0.0
2017-May-14 14:30N 35°29' E 139°55'0 0.0
2017-May-14 13:24N 35°29' E 139°55'0 0.0
2017-May-14 13:00N 35°29' E 139°55'0 0.0
2017-May-14 12:30N 35°29' E 139°55'0 0.0
2017-May-14 11:51N 35°29' E 139°55'0 0.0
2017-May-14 07:42N 35°29' E 139°55'1 5.0
2017-May-14 07:29N 35°29' E 139°53'511.0
2017-May-14 07:00N 35°25' E 139°48'611.3
2017-May-14 06:30N 35°20' E 139°45'510.8
2017-May-14 06:00N 35°15' E 139°47'510.8
2017-May-14 05:30N 35°10' E 139°46'510.8
2017-May-14 05:00N 35°05' E 139°45'3 6.0
2017-May-14 04:30N 35°02' E 139°43'4 7.5
2017-May-14 04:00N 35°06' E 139°44'4 8.6
2017-May-14 03:30N 35°10' E 139°44'612.4
2017-May-14 03:00N 35°16' E 139°46'612.3
2017-May-14 02:30N 35°22' E 139°42'612.2
2017-May-14 02:00N 35°28' E 139°42'4 8.1
2017-May-14 01:30N 35°31' E 139°45'0 0.0
2017-May-13 22:41N 35°31' E 139°45'0 0.2
2017-May-13 22:30N 35°31' E 139°45'3 5.7
2017-May-13 22:00N 35°30' E 139°48'1 1.9
2017-May-13 21:30N 35°29' E 139°49'0 0.0
2017-May-13 21:00N 35°29' E 139°49'0 0.0
2017-May-13 20:30N 35°29' E 139°49'0 0.0
2017-May-13 20:00N 35°29' E 139°49'0 0.0
2017-May-13 19:30N 35°29' E 139°49'0 0.0
2017-May-13 19:00N 35°29' E 139°49'0 0.0
2017-May-13 18:30N 35°29' E 139°49'0 0.0
2017-May-13 18:00N 35°29' E 139°49'0 0.0
2017-May-13 17:30N 35°29' E 139°49'0 0.0
2017-May-13 17:00N 35°29' E 139°49'0 0.0
2017-May-13 16:30N 35°29' E 139°49'0 0.0
2017-May-13 16:00N 35°29' E 139°49'0 0.0
2017-May-13 15:30N 35°29' E 139°49'0 0.0
2017-May-13 15:00N 35°29' E 139°49'0 0.0
2017-May-13 14:30N 35°29' E 139°49'0 0.0
2017-May-13 13:30N 35°29' E 139°49'0 0.0
2017-May-13 13:00N 35°29' E 139°49'0 0.0
2017-May-13 12:30N 35°29' E 139°49'0 0.0
2017-May-13 12:00N 35°29' E 139°49'0 0.1
2017-May-13 11:30N 35°29' E 139°49'0 0.0
2017-May-13 11:00N 35°29' E 139°49'0 0.0
2017-May-13 10:30N 35°29' E 139°49'0 0.0
2017-May-13 10:00N 35°29' E 139°49'0 0.0
2017-May-13 09:30N 35°29' E 139°49'0 0.1
2017-May-13 09:00N 35°29' E 139°49'0 0.0
2017-May-13 08:30N 35°29' E 139°49'3 6.5
2017-May-13 08:00N 35°27' E 139°46'611.1
2017-May-13 07:30N 35°24' E 139°40'2 3.1
2017-May-13 06:58N 35°25' E 139°39'0 0.0
2017-May-13 06:28N 35°25' E 139°39'0 0.0
2017-May-13 05:58N 35°25' E 139°39'0 0.0
2017-May-13 05:28N 35°25' E 139°39'0 0.0
2017-May-13 04:58N 35°25' E 139°39'0 0.0
2017-May-13 04:28N 35°25' E 139°39'0 0.0
2017-May-13 03:58N 35°25' E 139°39'0 0.0
2017-May-13 03:28N 35°25' E 139°39'0 0.0
2017-May-13 02:58N 35°25' E 139°39'2 5.2
2017-May-13 02:30N 35°24' E 139°42'510.8
2017-May-13 02:00N 35°29' E 139°42'3 2.0
2017-May-13 00:35N 35°31' E 139°45'0 0.0
2017-May-12 23:29N 35°31' E 139°45'0 0.0
2017-May-12 22:53N 35°31' E 139°45'0 0.6
2017-May-12 22:30N 35°31' E 139°45'4 7.4
2017-May-12 22:00N 35°29' E 139°49'0 0.1
2017-May-12 21:29N 35°29' E 139°49'0 0.0
2017-May-12 20:59N 35°29' E 139°49'0 0.0
2017-May-12 20:29N 35°29' E 139°49'0 0.0
2017-May-12 19:56N 35°29' E 139°49'0 0.0
2017-May-12 19:29N 35°29' E 139°49'0 0.0
2017-May-12 18:59N 35°29' E 139°49'0 0.0
2017-May-12 18:29N 35°29' E 139°49'0 0.0
2017-May-12 17:59N 35°29' E 139°49'0 0.0
2017-May-12 17:29N 35°29' E 139°49'0 0.0
2017-May-12 16:59N 35°29' E 139°49'0 0.0
2017-May-12 16:29N 35°29' E 139°49'0 0.0
2017-May-12 15:59N 35°29' E 139°49'0 0.0
2017-May-12 15:29N 35°29' E 139°49'0 0.0
2017-May-12 14:59N 35°29' E 139°49'0 0.0
2017-May-12 14:29N 35°29' E 139°49'0 0.0
2017-May-12 13:29N 35°29' E 139°49'0 0.0
2017-May-12 12:59N 35°29' E 139°49'0 0.0
2017-May-12 12:29N 35°29' E 139°49'0 0.0
2017-May-12 11:56N 35°29' E 139°49'0 0.0
2017-May-12 11:29N 35°29' E 139°49'0 0.0
2017-May-12 10:59N 35°29' E 139°49'0 0.0
2017-May-12 10:29N 35°29' E 139°49'0 0.0
2017-May-12 09:59N 35°29' E 139°49'0 0.0
2017-May-12 09:29N 35°29' E 139°49'0 0.3
2017-May-12 09:00N 35°29' E 139°49'611.8
2017-May-12 08:30N 35°25' E 139°44'4 7.9
2017-May-12 08:00N 35°25' E 139°39'0 0.1
2017-May-12 07:29N 35°25' E 139°39'0 0.0
2017-May-12 06:59N 35°25' E 139°39'0 0.0
2017-May-12 06:29N 35°25' E 139°39'0 0.0
2017-May-12 05:59N 35°25' E 139°39'0 0.0
2017-May-12 05:23N 35°25' E 139°39'0 0.0
2017-May-12 04:59N 35°25' E 139°39'0 0.0
2017-May-12 04:29N 35°25' E 139°39'0 0.0
2017-May-12 03:59N 35°25' E 139°39'0 0.0
2017-May-12 03:30N 35°25' E 139°39'3 5.3
2017-May-12 03:00N 35°25' E 139°42'510.1
2017-May-12 02:30N 35°30' E 139°43'2 3.7
2017-May-12 01:58N 35°31' E 139°45'0 0.0
2017-May-12 01:19N 35°31' E 139°45'0 0.0
2017-May-12 00:58N 35°31' E 139°45'0 0.0
2017-May-12 00:28N 35°31' E 139°45'0 0.0
2017-May-11 23:58N 35°31' E 139°45'0 0.0
2017-May-11 23:25N 35°31' E 139°45'0 0.1
2017-May-11 23:01N 35°31' E 139°45'2 4.6
2017-May-11 22:31N 35°30' E 139°47'1 2.8
2017-May-11 21:59N 35°29' E 139°49'0 0.0
2017-May-11 21:29N 35°29' E 139°49'0 0.0
2017-May-11 20:59N 35°29' E 139°49'0 0.0
2017-May-11 20:29N 35°29' E 139°49'0 0.0
2017-May-11 19:59N 35°29' E 139°49'0 0.0
2017-May-11 19:29N 35°29' E 139°49'0 0.0
2017-May-11 18:59N 35°29' E 139°49'0 0.0
2017-May-11 18:29N 35°29' E 139°49'0 0.0
2017-May-11 17:59N 35°29' E 139°49'0 0.0
2017-May-11 17:29N 35°29' E 139°49'0 0.1
2017-May-11 17:00N 35°29' E 139°49'5 9.7
2017-May-11 16:30N 35°25' E 139°47'612.2
2017-May-11 16:00N 35°19' E 139°44'611.4
2017-May-11 15:30N 35°14' E 139°47'611.5
2017-May-11 15:00N 35°08' E 139°46'611.4
2017-May-11 14:30N 35°03' E 139°43'  

Dump ship's entire track history